sensor_id;sensor_type;location;lat;lon;timestamp;pressure;altitude;pressure_sealevel;temperature;humidity
70254;BME280;57649;42.968;1.608;2023-07-31T00:01:52;97641.88;;;19.62;100.00
70254;BME280;57649;42.968;1.608;2023-07-31T00:04:17;97644.59;;;19.62;100.00
70254;BME280;57649;42.968;1.608;2023-07-31T00:06:43;97635.63;;;19.62;100.00
70254;BME280;57649;42.968;1.608;2023-07-31T00:09:08;97638.13;;;19.64;100.00
70254;BME280;57649;42.968;1.608;2023-07-31T00:11:34;97630.81;;;19.64;100.00
70254;BME280;57649;42.968;1.608;2023-07-31T00:13:59;97632.34;;;19.53;100.00
70254;BME280;57649;42.968;1.608;2023-07-31T00:16:25;97637.09;;;19.58;100.00
70254;BME280;57649;42.968;1.608;2023-07-31T00:18:51;97632.94;;;19.55;100.00
70254;BME280;57649;42.968;1.608;2023-07-31T00:21:16;97627.50;;;19.55;100.00
70254;BME280;57649;42.968;1.608;2023-07-31T00:23:41;97621.47;;;19.53;100.00
70254;BME280;57649;42.968;1.608;2023-07-31T00:26:07;97620.19;;;19.56;100.00
70254;BME280;57649;42.968;1.608;2023-07-31T00:28:32;97618.75;;;19.53;100.00
70254;BME280;57649;42.968;1.608;2023-07-31T00:30:58;97626.47;;;19.56;100.00
70254;BME280;57649;42.968;1.608;2023-07-31T00:33:23;97612.13;;;19.49;100.00
70254;BME280;57649;42.968;1.608;2023-07-31T00:35:48;97604.78;;;19.50;100.00
70254;BME280;57649;42.968;1.608;2023-07-31T00:38:14;97612.03;;;19.56;100.00
70254;BME280;57649;42.968;1.608;2023-07-31T00:40:39;97598.31;;;19.51;100.00
70254;BME280;57649;42.968;1.608;2023-07-31T00:43:05;97603.91;;;19.56;100.00
70254;BME280;57649;42.968;1.608;2023-07-31T00:45:31;97597.66;;;19.55;100.00
70254;BME280;57649;42.968;1.608;2023-07-31T00:47:56;97600.78;;;19.52;100.00
70254;BME280;57649;42.968;1.608;2023-07-31T00:50:24;97594.72;;;19.57;100.00
70254;BME280;57649;42.968;1.608;2023-07-31T00:52:50;97589.53;;;19.49;100.00
70254;BME280;57649;42.968;1.608;2023-07-31T00:55:16;97584.97;;;19.49;100.00
70254;BME280;57649;42.968;1.608;2023-07-31T00:57:42;97590.63;;;19.48;100.00
70254;BME280;57649;42.968;1.608;2023-07-31T01:00:08;97581.47;;;19.42;100.00
70254;BME280;57649;42.968;1.608;2023-07-31T01:02:34;97589.00;;;19.40;100.00
70254;BME280;57649;42.968;1.608;2023-07-31T01:05:01;97594.38;;;19.47;100.00
70254;BME280;57649;42.968;1.608;2023-07-31T01:07:38;97593.66;;;19.58;100.00
70254;BME280;57649;42.968;1.608;2023-07-31T01:10:20;97582.25;;;19.49;100.00
70254;BME280;57649;42.968;1.608;2023-07-31T01:12:47;97582.41;;;19.29;100.00
70254;BME280;57649;42.968;1.608;2023-07-31T01:15:13;97589.53;;;19.23;100.00
70254;BME280;57649;42.968;1.608;2023-07-31T01:17:41;97589.53;;;19.23;100.00
70254;BME280;57649;42.968;1.608;2023-07-31T01:20:21;97584.56;;;19.14;100.00
70254;BME280;57649;42.968;1.608;2023-07-31T01:23:08;97582.75;;;19.08;100.00
70254;BME280;57649;42.968;1.608;2023-07-31T01:28:40;97586.88;;;19.10;100.00
70254;BME280;57649;42.968;1.608;2023-07-31T01:31:10;97591.75;;;19.01;100.00
70254;BME280;57649;42.968;1.608;2023-07-31T01:33:37;97592.59;;;19.02;100.00
70254;BME280;57649;42.968;1.608;2023-07-31T01:36:03;97585.06;;;19.04;100.00
70254;BME280;57649;42.968;1.608;2023-07-31T01:38:29;97586.34;;;19.01;100.00
70254;BME280;57649;42.968;1.608;2023-07-31T01:40:54;97593.47;;;18.96;100.00
70254;BME280;57649;42.968;1.608;2023-07-31T01:43:20;97599.44;;;19.04;100.00
70254;BME280;57649;42.968;1.608;2023-07-31T01:45:45;97588.81;;;19.03;100.00
70254;BME280;57649;42.968;1.608;2023-07-31T01:48:11;97591.75;;;19.01;100.00
70254;BME280;57649;42.968;1.608;2023-07-31T01:50:36;97595.94;;;18.97;100.00
70254;BME280;57649;42.968;1.608;2023-07-31T01:53:01;97597.63;;;18.98;100.00
70254;BME280;57649;42.968;1.608;2023-07-31T01:55:27;97589.91;;;18.95;100.00
70254;BME280;57649;42.968;1.608;2023-07-31T01:57:52;97597.81;;;18.97;100.00
70254;BME280;57649;42.968;1.608;2023-07-31T02:00:18;97584.34;;;18.77;100.00
70254;BME280;57649;42.968;1.608;2023-07-31T02:02:44;97593.75;;;18.67;100.00
70254;BME280;57649;42.968;1.608;2023-07-31T02:05:09;97597.78;;;18.52;100.00
70254;BME280;57649;42.968;1.608;2023-07-31T02:07:34;97592.19;;;18.46;100.00
70254;BME280;57649;42.968;1.608;2023-07-31T02:10:00;97588.66;;;18.39;100.00
70254;BME280;57649;42.968;1.608;2023-07-31T02:12:25;97586.59;;;18.35;100.00
70254;BME280;57649;42.968;1.608;2023-07-31T02:14:51;97578.25;;;18.30;100.00
70254;BME280;57649;42.968;1.608;2023-07-31T02:17:16;97580.53;;;18.33;100.00
70254;BME280;57649;42.968;1.608;2023-07-31T02:19:42;97582.63;;;18.31;100.00
70254;BME280;57649;42.968;1.608;2023-07-31T02:22:07;97571.38;;;18.34;100.00
70254;BME280;57649;42.968;1.608;2023-07-31T02:24:32;97576.75;;;18.47;100.00
70254;BME280;57649;42.968;1.608;2023-07-31T02:26:58;97569.50;;;18.34;100.00
70254;BME280;57649;42.968;1.608;2023-07-31T02:29:23;97574.91;;;18.41;100.00
70254;BME280;57649;42.968;1.608;2023-07-31T02:31:48;97570.72;;;18.45;100.00
70254;BME280;57649;42.968;1.608;2023-07-31T02:34:14;97563.78;;;18.56;100.00
70254;BME280;57649;42.968;1.608;2023-07-31T02:36:39;97571.94;;;18.56;100.00
70254;BME280;57649;42.968;1.608;2023-07-31T02:39:04;97564.00;;;18.54;100.00
70254;BME280;57649;42.968;1.608;2023-07-31T02:41:30;97564.34;;;18.64;100.00
70254;BME280;57649;42.968;1.608;2023-07-31T02:43:55;97563.94;;;18.67;100.00
70254;BME280;57649;42.968;1.608;2023-07-31T02:46:21;97554.56;;;18.70;100.00
70254;BME280;57649;42.968;1.608;2023-07-31T02:48:49;97559.34;;;18.68;100.00
70254;BME280;57649;42.968;1.608;2023-07-31T02:51:15;97557.88;;;18.72;100.00
70254;BME280;57649;42.968;1.608;2023-07-31T02:53:40;97549.75;;;18.72;100.00
70254;BME280;57649;42.968;1.608;2023-07-31T02:56:05;97552.22;;;18.74;100.00
70254;BME280;57649;42.968;1.608;2023-07-31T02:58:31;97547.88;;;18.66;100.00
70254;BME280;57649;42.968;1.608;2023-07-31T03:00:58;97546.03;;;18.60;100.00
70254;BME280;57649;42.968;1.608;2023-07-31T03:03:23;97540.69;;;18.46;100.00
70254;BME280;57649;42.968;1.608;2023-07-31T03:05:49;97550.47;;;18.47;100.00
70254;BME280;57649;42.968;1.608;2023-07-31T03:08:14;97542.53;;;18.46;100.00
70254;BME280;57649;42.968;1.608;2023-07-31T03:10:40;97551.13;;;18.43;100.00
70254;BME280;57649;42.968;1.608;2023-07-31T03:13:06;97551.16;;;18.30;100.00
70254;BME280;57649;42.968;1.608;2023-07-31T03:15:32;97546.59;;;18.23;100.00
70254;BME280;57649;42.968;1.608;2023-07-31T03:17:57;97535.97;;;18.28;100.00
70254;BME280;57649;42.968;1.608;2023-07-31T03:20:23;97544.53;;;18.19;100.00
70254;BME280;57649;42.968;1.608;2023-07-31T03:22:48;97542.44;;;18.21;100.00
70254;BME280;57649;42.968;1.608;2023-07-31T03:25:13;97546.03;;;18.08;100.00
70254;BME280;57649;42.968;1.608;2023-07-31T03:27:39;97535.78;;;18.17;100.00
70254;BME280;57649;42.968;1.608;2023-07-31T03:30:05;97529.34;;;18.11;100.00
70254;BME280;57649;42.968;1.608;2023-07-31T03:32:31;97539.97;;;18.13;100.00
70254;BME280;57649;42.968;1.608;2023-07-31T03:34:57;97536.41;;;18.19;100.00
70254;BME280;57649;42.968;1.608;2023-07-31T03:37:22;97510.81;;;18.08;100.00
70254;BME280;57649;42.968;1.608;2023-07-31T03:39:48;97527.69;;;18.03;100.00
70254;BME280;57649;42.968;1.608;2023-07-31T03:42:13;97527.94;;;17.95;100.00
70254;BME280;57649;42.968;1.608;2023-07-31T03:44:38;97523.34;;;17.96;100.00
70254;BME280;57649;42.968;1.608;2023-07-31T03:47:04;97526.25;;;18.01;100.00
70254;BME280;57649;42.968;1.608;2023-07-31T03:49:30;97520.03;;;17.94;100.00
70254;BME280;57649;42.968;1.608;2023-07-31T03:51:55;97522.09;;;17.78;100.00
70254;BME280;57649;42.968;1.608;2023-07-31T03:54:21;97519.81;;;17.75;100.00
70254;BME280;57649;42.968;1.608;2023-07-31T03:56:46;97526.47;;;17.73;100.00
70254;BME280;57649;42.968;1.608;2023-07-31T03:59:12;97523.56;;;17.74;100.00
70254;BME280;57649;42.968;1.608;2023-07-31T04:01:37;97521.09;;;17.66;100.00
70254;BME280;57649;42.968;1.608;2023-07-31T04:04:02;97523.34;;;17.69;100.00
70254;BME280;57649;42.968;1.608;2023-07-31T04:06:28;97522.13;;;17.51;100.00
70254;BME280;57649;42.968;1.608;2023-07-31T04:08:53;97523.59;;;17.41;100.00
70254;BME280;57649;42.968;1.608;2023-07-31T04:11:19;97532.34;;;17.23;100.00
70254;BME280;57649;42.968;1.608;2023-07-31T04:13:44;97531.50;;;17.22;100.00
70254;BME280;57649;42.968;1.608;2023-07-31T04:16:09;97530.06;;;17.33;100.00
70254;BME280;57649;42.968;1.608;2023-07-31T04:18:35;97519.84;;;17.28;100.00
70254;BME280;57649;42.968;1.608;2023-07-31T04:21:00;97530.88;;;17.34;100.00
70254;BME280;57649;42.968;1.608;2023-07-31T04:23:27;97529.22;;;17.39;100.00
70254;BME280;57649;42.968;1.608;2023-07-31T04:25:53;97531.31;;;17.44;100.00
70254;BME280;57649;42.968;1.608;2023-07-31T04:28:18;97522.56;;;17.48;100.00
70254;BME280;57649;42.968;1.608;2023-07-31T04:30:44;97525.25;;;17.42;100.00
70254;BME280;57649;42.968;1.608;2023-07-31T04:33:09;97533.38;;;17.48;100.00
70254;BME280;57649;42.968;1.608;2023-07-31T04:35:34;97525.88;;;17.50;100.00
70254;BME280;57649;42.968;1.608;2023-07-31T04:38:00;97536.50;;;17.52;100.00
70254;BME280;57649;42.968;1.608;2023-07-31T04:40:26;97536.50;;;17.52;100.00
70254;BME280;57649;42.968;1.608;2023-07-31T04:42:51;97534.41;;;17.54;100.00
70254;BME280;57649;42.968;1.608;2023-07-31T04:45:17;97537.13;;;17.54;100.00
70254;BME280;57649;42.968;1.608;2023-07-31T04:47:42;97541.31;;;17.57;100.00
70254;BME280;57649;42.968;1.608;2023-07-31T04:50:08;97547.13;;;17.60;100.00
70254;BME280;57649;42.968;1.608;2023-07-31T04:52:33;97547.97;;;17.47;100.00
70254;BME280;57649;42.968;1.608;2023-07-31T04:54:59;97547.53;;;17.64;100.00
70254;BME280;57649;42.968;1.608;2023-07-31T04:57:24;97556.28;;;17.52;100.00
70254;BME280;57649;42.968;1.608;2023-07-31T04:59:49;97549.59;;;17.62;100.00
70254;BME280;57649;42.968;1.608;2023-07-31T05:02:15;97561.28;;;17.62;100.00
70254;BME280;57649;42.968;1.608;2023-07-31T05:04:40;97564.41;;;17.66;100.00
70254;BME280;57649;42.968;1.608;2023-07-31T05:07:06;97566.25;;;17.65;100.00
70254;BME280;57649;42.968;1.608;2023-07-31T05:09:31;97570.84;;;17.65;100.00
70254;BME280;57649;42.968;1.608;2023-07-31T05:11:57;97570.84;;;17.58;100.00
70254;BME280;57649;42.968;1.608;2023-07-31T05:14:22;97573.56;;;17.51;100.00
70254;BME280;57649;42.968;1.608;2023-07-31T05:16:48;97570.84;;;17.45;100.00
70254;BME280;57649;42.968;1.608;2023-07-31T05:19:13;97586.03;;;17.52;100.00
70254;BME280;57649;42.968;1.608;2023-07-31T05:21:39;97574.63;;;17.44;100.00
70254;BME280;57649;42.968;1.608;2023-07-31T05:24:05;97584.59;;;17.43;100.00
70254;BME280;57649;42.968;1.608;2023-07-31T05:26:30;97593.56;;;17.44;100.00
70254;BME280;57649;42.968;1.608;2023-07-31T05:28:56;97585.63;;;17.42;100.00
70254;BME280;57649;42.968;1.608;2023-07-31T05:31:21;97591.44;;;17.52;100.00
70254;BME280;57649;42.968;1.608;2023-07-31T05:33:47;97598.75;;;17.59;100.00
70254;BME280;57649;42.968;1.608;2023-07-31T05:36:15;97600.84;;;17.57;100.00
70254;BME280;57649;42.968;1.608;2023-07-31T05:38:40;97601.69;;;17.64;100.00
70254;BME280;57649;42.968;1.608;2023-07-31T05:41:05;97603.53;;;17.70;100.00
70254;BME280;57649;42.968;1.608;2023-07-31T05:43:31;97599.63;;;17.86;100.00
70254;BME280;57649;42.968;1.608;2023-07-31T05:45:56;97591.03;;;17.76;100.00
70254;BME280;57649;42.968;1.608;2023-07-31T05:48:22;97609.16;;;17.75;100.00
70254;BME280;57649;42.968;1.608;2023-07-31T05:50:47;97600.59;;;17.78;100.00
70254;BME280;57649;42.968;1.608;2023-07-31T05:53:12;97608.97;;;17.90;100.00
70254;BME280;57649;42.968;1.608;2023-07-31T05:55:38;97611.25;;;18.00;100.00
70254;BME280;57649;42.968;1.608;2023-07-31T05:58:03;97598.13;;;18.03;100.00
70254;BME280;57649;42.968;1.608;2023-07-31T06:00:28;97611.25;;;18.00;100.00
70254;BME280;57649;42.968;1.608;2023-07-31T06:02:54;97598.34;;;17.95;100.00
70254;BME280;57649;42.968;1.608;2023-07-31T06:05:19;97602.91;;;17.95;100.00
70254;BME280;57649;42.968;1.608;2023-07-31T06:07:45;97605.00;;;17.93;100.00
70254;BME280;57649;42.968;1.608;2023-07-31T06:10:11;97613.13;;;18.06;100.00
70254;BME280;57649;42.968;1.608;2023-07-31T06:12:36;97613.13;;;18.06;100.00
70254;BME280;57649;42.968;1.608;2023-07-31T06:15:02;97610.00;;;18.09;100.00
70254;BME280;57649;42.968;1.608;2023-07-31T06:17:28;97604.53;;;18.22;100.00
70254;BME280;57649;42.968;1.608;2023-07-31T06:19:56;97602.47;;;18.24;100.00
70254;BME280;57649;42.968;1.608;2023-07-31T06:22:21;97598.03;;;18.43;100.00
70254;BME280;57649;42.968;1.608;2023-07-31T06:24:47;97606.56;;;18.47;100.00
70254;BME280;57649;42.968;1.608;2023-07-31T06:27:12;97596.13;;;18.51;100.00
70254;BME280;57649;42.968;1.608;2023-07-31T06:29:37;97605.50;;;18.55;100.00
70254;BME280;57649;42.968;1.608;2023-07-31T06:32:03;97604.41;;;18.62;100.00
70254;BME280;57649;42.968;1.608;2023-07-31T06:34:29;97601.09;;;18.60;100.00
70254;BME280;57649;42.968;1.608;2023-07-31T06:36:55;97595.84;;;18.65;100.00
70254;BME280;57649;42.968;1.608;2023-07-31T06:39:21;97595.66;;;18.67;100.00
70254;BME280;57649;42.968;1.608;2023-07-31T06:41:47;97592.03;;;18.80;100.00
70254;BME280;57649;42.968;1.608;2023-07-31T06:44:12;97596.00;;;18.77;100.00
70254;BME280;57649;42.968;1.608;2023-07-31T06:46:37;97582.28;;;18.72;100.00
70254;BME280;57649;42.968;1.608;2023-07-31T06:49:03;97588.50;;;18.86;100.00
70254;BME280;57649;42.968;1.608;2023-07-31T06:51:28;97581.41;;;18.85;100.00
70254;BME280;57649;42.968;1.608;2023-07-31T06:53:56;97592.19;;;18.98;99.94
70254;BME280;57649;42.968;1.608;2023-07-31T06:56:22;97587.66;;;18.85;100.00
70254;BME280;57649;42.968;1.608;2023-07-31T06:58:47;97570.66;;;19.03;99.44
70254;BME280;57649;42.968;1.608;2023-07-31T07:01:13;97571.19;;;19.19;99.11
70254;BME280;57649;42.968;1.608;2023-07-31T07:03:38;97577.38;;;19.33;97.88
70254;BME280;57649;42.968;1.608;2023-07-31T07:06:03;97580.88;;;19.40;98.27
70254;BME280;57649;42.968;1.608;2023-07-31T07:08:29;97567.03;;;19.41;97.75
70254;BME280;57649;42.968;1.608;2023-07-31T07:10:54;97564.50;;;19.47;96.36
70254;BME280;57649;42.968;1.608;2023-07-31T07:13:21;97568.06;;;19.47;97.19
70254;BME280;57649;42.968;1.608;2023-07-31T07:15:50;97557.13;;;19.54;96.59
70254;BME280;57649;42.968;1.608;2023-07-31T07:18:16;97560.97;;;19.46;95.32
70254;BME280;57649;42.968;1.608;2023-07-31T07:20:50;97571.28;;;19.62;95.92
70254;BME280;57649;42.968;1.608;2023-07-31T07:23:16;97553.09;;;19.63;97.27
70254;BME280;57649;42.968;1.608;2023-07-31T07:25:42;97558.81;;;19.55;98.63
70254;BME280;57649;42.968;1.608;2023-07-31T07:28:08;97555.31;;;19.48;96.72
70254;BME280;57649;42.968;1.608;2023-07-31T07:30:33;97547.53;;;19.26;96.63
70254;BME280;57649;42.968;1.608;2023-07-31T07:32:58;97546.75;;;19.19;97.48
70254;BME280;57649;42.968;1.608;2023-07-31T07:35:24;97550.94;;;19.47;96.75
70254;BME280;57649;42.968;1.608;2023-07-31T07:37:49;97560.53;;;19.49;97.02
70254;BME280;57649;42.968;1.608;2023-07-31T07:40:19;97557.75;;;19.56;95.57
70254;BME280;57649;42.968;1.608;2023-07-31T07:42:44;97552.81;;;19.71;95.24
70254;BME280;57649;42.968;1.608;2023-07-31T07:45:09;97546.25;;;19.86;92.75
70254;BME280;57649;42.968;1.608;2023-07-31T07:47:35;97536.88;;;20.00;92.16
70254;BME280;57649;42.968;1.608;2023-07-31T07:50:00;97538.94;;;20.05;91.00
70254;BME280;57649;42.968;1.608;2023-07-31T07:52:26;97528.66;;;20.07;91.53
70254;BME280;57649;42.968;1.608;2023-07-31T07:54:51;97535.63;;;20.03;90.26
70254;BME280;57649;42.968;1.608;2023-07-31T07:57:17;97531.72;;;19.73;92.40
70254;BME280;57649;42.968;1.608;2023-07-31T07:59:42;97539.88;;;19.73;91.21
70254;BME280;57649;42.968;1.608;2023-07-31T08:02:08;97537.72;;;19.82;92.02
70254;BME280;57649;42.968;1.608;2023-07-31T08:04:33;97537.78;;;20.31;87.64
70254;BME280;57649;42.968;1.608;2023-07-31T08:06:58;97537.25;;;20.59;85.60
70254;BME280;57649;42.968;1.608;2023-07-31T08:09:24;97539.13;;;20.77;86.06
70254;BME280;57649;42.968;1.608;2023-07-31T08:11:49;97531.41;;;21.04;84.04
70254;BME280;57649;42.968;1.608;2023-07-31T08:14:14;97532.19;;;21.23;82.41
70254;BME280;57649;42.968;1.608;2023-07-31T08:16:40;97532.75;;;21.67;80.39
70254;BME280;57649;42.968;1.608;2023-07-31T08:19:05;97531.34;;;21.77;79.77
70254;BME280;57649;42.968;1.608;2023-07-31T08:21:31;97517.09;;;21.51;81.46
70254;BME280;57649;42.968;1.608;2023-07-31T08:23:57;97525.53;;;21.19;81.97
70254;BME280;57649;42.968;1.608;2023-07-31T08:26:22;97518.25;;;20.89;82.12
70254;BME280;57649;42.968;1.608;2023-07-31T08:28:48;97515.88;;;20.93;83.99
70254;BME280;57649;42.968;1.608;2023-07-31T08:31:13;97516.03;;;21.10;82.04
70254;BME280;57649;42.968;1.608;2023-07-31T08:33:39;97520.38;;;20.87;83.52
70254;BME280;57649;42.968;1.608;2023-07-31T08:36:05;97516.81;;;20.87;83.15
70254;BME280;57649;42.968;1.608;2023-07-31T08:38:31;97510.72;;;21.57;81.91
70254;BME280;57649;42.968;1.608;2023-07-31T08:40:57;97506.75;;;22.36;76.99
70254;BME280;57649;42.968;1.608;2023-07-31T08:43:25;97504.06;;;22.00;78.60
70254;BME280;57649;42.968;1.608;2023-07-31T08:45:51;97505.13;;;21.76;76.45
70254;BME280;57649;42.968;1.608;2023-07-31T08:48:17;97497.22;;;21.62;76.05
70254;BME280;57649;42.968;1.608;2023-07-31T08:50:43;97492.09;;;21.89;75.75
70254;BME280;57649;42.968;1.608;2023-07-31T08:53:08;97498.34;;;22.14;75.35
70254;BME280;57649;42.968;1.608;2023-07-31T08:55:35;97492.00;;;21.96;75.71
70254;BME280;57649;42.968;1.608;2023-07-31T08:58:02;97491.16;;;21.96;73.66
70254;BME280;57649;42.968;1.608;2023-07-31T09:00:29;97485.41;;;22.33;72.89
70254;BME280;57649;42.968;1.608;2023-07-31T09:03:01;97492.28;;;22.35;73.02
70254;BME280;57649;42.968;1.608;2023-07-31T09:05:29;97494.38;;;22.45;73.06
70254;BME280;57649;42.968;1.608;2023-07-31T09:07:56;97488.28;;;22.83;72.32
70254;BME280;57649;42.968;1.608;2023-07-31T09:10:22;97499.03;;;22.44;73.11
70254;BME280;57649;42.968;1.608;2023-07-31T09:12:51;97499.38;;;22.36;73.32
70254;BME280;57649;42.968;1.608;2023-07-31T09:15:18;97489.13;;;23.30;70.28
70254;BME280;57649;42.968;1.608;2023-07-31T09:17:44;97493.72;;;23.97;67.23
70254;BME280;57649;42.968;1.608;2023-07-31T09:20:14;97494.22;;;23.94;67.19
70254;BME280;57649;42.968;1.608;2023-07-31T09:22:40;97486.78;;;23.89;68.00
70254;BME280;57649;42.968;1.608;2023-07-31T09:25:21;97484.97;;;23.78;67.61
70254;BME280;57649;42.968;1.608;2023-07-31T09:27:57;97478.47;;;23.45;68.91
70254;BME280;57649;42.968;1.608;2023-07-31T09:30:23;97477.34;;;24.19;66.30
70254;BME280;57649;42.968;1.608;2023-07-31T09:32:50;97486.19;;;24.04;65.54
70254;BME280;57649;42.968;1.608;2023-07-31T09:35:28;97484.56;;;24.08;65.87
70254;BME280;57649;42.968;1.608;2023-07-31T09:38:03;97474.97;;;24.50;64.06
70254;BME280;57649;42.968;1.608;2023-07-31T09:40:33;97480.41;;;24.94;62.39
70254;BME280;57649;42.968;1.608;2023-07-31T09:43:03;97467.44;;;25.11;61.96
70254;BME280;57649;42.968;1.608;2023-07-31T09:45:29;97459.63;;;25.25;60.75
70254;BME280;57649;42.968;1.608;2023-07-31T09:47:56;97459.09;;;25.66;60.23
70254;BME280;57649;42.968;1.608;2023-07-31T09:50:23;97460.59;;;25.14;61.68
70254;BME280;57649;42.968;1.608;2023-07-31T09:52:49;97455.81;;;25.69;59.77
70254;BME280;57649;42.968;1.608;2023-07-31T09:55:14;97450.59;;;26.05;60.08
70254;BME280;57649;42.968;1.608;2023-07-31T09:57:41;97450.38;;;25.04;61.66
70254;BME280;57649;42.968;1.608;2023-07-31T10:00:08;97450.78;;;25.50;61.25
70254;BME280;57649;42.968;1.608;2023-07-31T10:02:36;97451.56;;;25.88;61.59
70254;BME280;57649;42.968;1.608;2023-07-31T10:05:03;97448.53;;;25.90;59.41
70254;BME280;57649;42.968;1.608;2023-07-31T10:07:30;97439.97;;;26.29;58.28
70254;BME280;57649;42.968;1.608;2023-07-31T10:09:58;97434.22;;;26.30;58.55
70254;BME280;57649;42.968;1.608;2023-07-31T10:12:26;97440.47;;;26.16;58.57
70254;BME280;57649;42.968;1.608;2023-07-31T10:14:54;97437.56;;;26.38;58.24
70254;BME280;57649;42.968;1.608;2023-07-31T10:17:21;97440.97;;;26.07;58.38
70254;BME280;57649;42.968;1.608;2023-07-31T10:19:48;97444.44;;;26.56;58.33
70254;BME280;57649;42.968;1.608;2023-07-31T10:22:14;97443.59;;;26.40;57.63
70254;BME280;57649;42.968;1.608;2023-07-31T10:24:42;97440.81;;;26.29;58.28
70254;BME280;57649;42.968;1.608;2023-07-31T10:27:08;97434.72;;;26.12;58.16
70254;BME280;57649;42.968;1.608;2023-07-31T10:29:35;97432.41;;;25.93;58.73
70254;BME280;57649;42.968;1.608;2023-07-31T10:35:08;97439.13;;;26.18;58.05
70254;BME280;57649;42.968;1.608;2023-07-31T10:37:40;97444.72;;;26.49;57.35
70254;BME280;57649;42.968;1.608;2023-07-31T10:40:23;97435.09;;;26.46;58.58
70254;BME280;57649;42.968;1.608;2023-07-31T10:42:56;97439.16;;;26.28;57.18
70254;BME280;57649;42.968;1.608;2023-07-31T10:45:31;97437.56;;;26.48;58.00
70254;BME280;57649;42.968;1.608;2023-07-31T10:48:01;97438.25;;;26.91;55.75
70254;BME280;57649;42.968;1.608;2023-07-31T10:50:28;97434.34;;;26.72;56.57
70254;BME280;57649;42.968;1.608;2023-07-31T10:52:56;97432.78;;;27.27;55.37
70254;BME280;57649;42.968;1.608;2023-07-31T10:55:41;97421.19;;;26.84;55.93
70254;BME280;57649;42.968;1.608;2023-07-31T10:58:09;97419.28;;;26.84;55.51
70254;BME280;57649;42.968;1.608;2023-07-31T11:00:37;97424.25;;;27.18;56.26
70254;BME280;57649;42.968;1.608;2023-07-31T11:03:12;97411.31;;;26.83;55.57
70254;BME280;57649;42.968;1.608;2023-07-31T11:10:42;97414.34;;;27.02;54.89
70254;BME280;57649;42.968;1.608;2023-07-31T11:13:08;97407.47;;;26.89;55.63
70254;BME280;57649;42.968;1.608;2023-07-31T11:15:33;97410.22;;;26.84;55.59
70254;BME280;57649;42.968;1.608;2023-07-31T11:18:02;97413.50;;;27.01;54.25
70254;BME280;57649;42.968;1.608;2023-07-31T11:20:34;97404.72;;;27.10;54.49
70254;BME280;57649;42.968;1.608;2023-07-31T11:23:05;97406.41;;;27.26;54.08
70254;BME280;57649;42.968;1.608;2023-07-31T11:25:32;97399.09;;;27.97;53.52
70254;BME280;57649;42.968;1.608;2023-07-31T11:28:05;97400.66;;;28.23;52.96
70254;BME280;57649;42.968;1.608;2023-07-31T11:30:31;97410.25;;;27.30;53.34
70254;BME280;57649;42.968;1.608;2023-07-31T11:32:56;97391.28;;;27.18;54.36
70254;BME280;57649;42.968;1.608;2023-07-31T11:35:22;97388.81;;;27.32;52.55
70254;BME280;57649;42.968;1.608;2023-07-31T11:37:47;97373.97;;;27.28;52.79
70254;BME280;57649;42.968;1.608;2023-07-31T11:40:14;97371.59;;;27.97;52.31
70254;BME280;57649;42.968;1.608;2023-07-31T11:42:39;97375.00;;;27.68;52.99
70254;BME280;57649;42.968;1.608;2023-07-31T11:45:09;97371.16;;;27.59;54.32
70254;BME280;57649;42.968;1.608;2023-07-31T11:47:37;97366.97;;;27.77;51.42
70254;BME280;57649;42.968;1.608;2023-07-31T11:50:04;97375.03;;;27.48;52.81
70254;BME280;57649;42.968;1.608;2023-07-31T11:52:32;97363.22;;;27.21;53.64
70254;BME280;57649;42.968;1.608;2023-07-31T11:54:59;97356.94;;;27.00;55.20
70254;BME280;57649;42.968;1.608;2023-07-31T11:57:25;97365.69;;;27.38;53.77
70254;BME280;57649;42.968;1.608;2023-07-31T11:59:51;97362.34;;;27.62;53.18
70254;BME280;57649;42.968;1.608;2023-07-31T12:02:18;97360.97;;;28.30;52.86
70254;BME280;57649;42.968;1.608;2023-07-31T12:04:45;97367.53;;;27.79;51.47
70254;BME280;57649;42.968;1.608;2023-07-31T12:07:11;97355.28;;;27.40;52.47
70254;BME280;57649;42.968;1.608;2023-07-31T12:09:38;97349.44;;;27.57;52.05
70254;BME280;57649;42.968;1.608;2023-07-31T12:12:08;97347.31;;;27.13;52.59
70254;BME280;57649;42.968;1.608;2023-07-31T12:14:34;97347.84;;;27.15;53.34
70254;BME280;57649;42.968;1.608;2023-07-31T12:17:03;97344.84;;;27.06;54.60
70254;BME280;57649;42.968;1.608;2023-07-31T12:19:29;97339.59;;;27.00;55.34
70254;BME280;57649;42.968;1.608;2023-07-31T12:21:59;97336.84;;;27.46;54.36
70254;BME280;57649;42.968;1.608;2023-07-31T12:24:26;97347.31;;;27.29;55.67
70254;BME280;57649;42.968;1.608;2023-07-31T12:26:52;97342.63;;;27.29;55.11
70254;BME280;57649;42.968;1.608;2023-07-31T12:29:17;97342.06;;;27.32;53.53
70254;BME280;57649;42.968;1.608;2023-07-31T12:31:43;97341.00;;;27.33;54.45
70254;BME280;57649;42.968;1.608;2023-07-31T12:34:19;97331.09;;;27.06;55.31
70254;BME280;57649;42.968;1.608;2023-07-31T12:36:46;97342.06;;;27.37;55.62
70254;BME280;57649;42.968;1.608;2023-07-31T12:39:14;97332.75;;;27.33;55.37
70254;BME280;57649;42.968;1.608;2023-07-31T12:41:40;97331.09;;;27.12;53.87
70254;BME280;57649;42.968;1.608;2023-07-31T12:44:05;97328.31;;;27.42;54.43
70254;BME280;57649;42.968;1.608;2023-07-31T12:46:30;97321.19;;;27.16;54.82
70254;BME280;57649;42.968;1.608;2023-07-31T12:48:56;97328.53;;;27.61;54.36
70254;BME280;57649;42.968;1.608;2023-07-31T12:51:21;97322.84;;;27.32;54.90
70254;BME280;57649;42.968;1.608;2023-07-31T12:53:46;97325.06;;;27.04;54.49
70254;BME280;57649;42.968;1.608;2023-07-31T12:56:12;97318.44;;;27.36;54.98
70254;BME280;57649;42.968;1.608;2023-07-31T12:58:37;97317.63;;;27.20;54.77
70254;BME280;57649;42.968;1.608;2023-07-31T13:01:03;97315.72;;;27.00;55.58
70254;BME280;57649;42.968;1.608;2023-07-31T13:03:28;97323.94;;;27.16;55.64